sensor_id;sensor_type;location;lat;lon;timestamp;P1;durP1;ratioP1;P2;durP2;ratioP2
24335;SDS011;33098;52.400;16.880;2022-10-12T00:00:01;38.50;;;21.20;;
24335;SDS011;33098;52.400;16.880;2022-10-12T00:02:58;39.80;;;20.70;;
24335;SDS011;33098;52.400;16.880;2022-10-12T00:05:25;38.60;;;21.70;;
24335;SDS011;33098;52.400;16.880;2022-10-12T00:07:55;37.50;;;19.90;;
24335;SDS011;33098;52.400;16.880;2022-10-12T00:10:21;36.80;;;20.10;;
24335;SDS011;33098;52.400;16.880;2022-10-12T00:12:48;39.00;;;20.40;;
24335;SDS011;33098;52.400;16.880;2022-10-12T00:15:15;38.70;;;21.40;;
24335;SDS011;33098;52.400;16.880;2022-10-12T00:17:42;37.80;;;20.00;;
24335;SDS011;33098;52.400;16.880;2022-10-12T00:20:12;35.80;;;20.20;;
24335;SDS011;33098;52.400;16.880;2022-10-12T00:22:40;36.20;;;20.20;;
24335;SDS011;33098;52.400;16.880;2022-10-12T00:25:09;35.70;;;19.80;;
24335;SDS011;33098;52.400;16.880;2022-10-12T00:27:36;40.10;;;21.40;;
24335;SDS011;33098;52.400;16.880;2022-10-12T00:30:03;43.10;;;20.90;;
24335;SDS011;33098;52.400;16.880;2022-10-12T00:32:33;41.30;;;22.00;;
24335;SDS011;33098;52.400;16.880;2022-10-12T00:34:59;41.40;;;22.30;;
24335;SDS011;33098;52.400;16.880;2022-10-12T00:37:27;42.00;;;21.50;;
24335;SDS011;33098;52.400;16.880;2022-10-12T00:39:53;38.80;;;21.00;;
24335;SDS011;33098;52.400;16.880;2022-10-12T00:42:20;37.50;;;21.80;;
24335;SDS011;33098;52.400;16.880;2022-10-12T00:44:48;36.50;;;20.10;;
24335;SDS011;33098;52.400;16.880;2022-10-12T00:49:51;37.40;;;21.10;;
24335;SDS011;33098;52.400;16.880;2022-10-12T00:52:24;36.60;;;19.20;;
24335;SDS011;33098;52.400;16.880;2022-10-12T00:54:57;37.40;;;20.70;;
24335;SDS011;33098;52.400;16.880;2022-10-12T00:57:25;43.50;;;21.00;;
24335;SDS011;33098;52.400;16.880;2022-10-12T00:59:57;37.60;;;19.60;;
24335;SDS011;33098;52.400;16.880;2022-10-12T01:02:28;36.10;;;19.70;;
24335;SDS011;33098;52.400;16.880;2022-10-12T01:04:57;37.00;;;20.80;;
24335;SDS011;33098;52.400;16.880;2022-10-12T01:07:25;34.50;;;19.60;;
24335;SDS011;33098;52.400;16.880;2022-10-12T01:09:52;38.10;;;20.30;;
24335;SDS011;33098;52.400;16.880;2022-10-12T01:12:18;37.90;;;20.10;;
24335;SDS011;33098;52.400;16.880;2022-10-12T01:14:45;37.80;;;19.80;;
24335;SDS011;33098;52.400;16.880;2022-10-12T01:22:52;37.90;;;19.60;;
24335;SDS011;33098;52.400;16.880;2022-10-12T01:34:08;38.00;;;20.10;;
24335;SDS011;33098;52.400;16.880;2022-10-12T01:36:44;36.20;;;20.20;;
24335;SDS011;33098;52.400;16.880;2022-10-12T01:39:23;35.00;;;20.30;;
24335;SDS011;33098;52.400;16.880;2022-10-12T01:42:02;41.70;;;21.00;;
24335;SDS011;33098;52.400;16.880;2022-10-12T01:44:37;37.80;;;20.20;;
24335;SDS011;33098;52.400;16.880;2022-10-12T01:47:04;34.90;;;19.80;;
24335;SDS011;33098;52.400;16.880;2022-10-12T01:49:31;40.40;;;20.00;;
24335;SDS011;33098;52.400;16.880;2022-10-12T01:54:52;37.10;;;20.00;;
24335;SDS011;33098;52.400;16.880;2022-10-12T01:57:39;35.80;;;19.80;;
24335;SDS011;33098;52.400;16.880;2022-10-12T02:00:16;35.60;;;20.30;;
24335;SDS011;33098;52.400;16.880;2022-10-12T02:02:46;37.60;;;20.50;;
24335;SDS011;33098;52.400;16.880;2022-10-12T02:10:53;34.90;;;19.80;;
24335;SDS011;33098;52.400;16.880;2022-10-12T02:13:34;34.40;;;18.80;;
24335;SDS011;33098;52.400;16.880;2022-10-12T02:16:06;36.20;;;19.80;;
24335;SDS011;33098;52.400;16.880;2022-10-12T02:18:45;32.40;;;18.80;;
24335;SDS011;33098;52.400;16.880;2022-10-12T02:21:19;33.40;;;18.70;;
24335;SDS011;33098;52.400;16.880;2022-10-12T02:23:49;34.10;;;19.00;;
24335;SDS011;33098;52.400;16.880;2022-10-12T02:26:18;41.10;;;19.90;;
24335;SDS011;33098;52.400;16.880;2022-10-12T02:28:46;34.00;;;19.10;;
24335;SDS011;33098;52.400;16.880;2022-10-12T02:34:05;32.00;;;18.90;;
24335;SDS011;33098;52.400;16.880;2022-10-12T02:36:38;36.70;;;18.90;;
24335;SDS011;33098;52.400;16.880;2022-10-12T02:39:23;34.70;;;19.60;;
24335;SDS011;33098;52.400;16.880;2022-10-12T02:41:56;31.80;;;19.00;;
24335;SDS011;33098;52.400;16.880;2022-10-12T02:44:28;36.60;;;19.10;;
24335;SDS011;33098;52.400;16.880;2022-10-12T02:47:02;32.40;;;18.40;;
24335;SDS011;33098;52.400;16.880;2022-10-12T02:49:33;30.20;;;18.20;;
24335;SDS011;33098;52.400;16.880;2022-10-12T02:52:02;33.80;;;18.90;;
24335;SDS011;33098;52.400;16.880;2022-10-12T02:54:30;28.80;;;17.90;;
24335;SDS011;33098;52.400;16.880;2022-10-12T02:56:57;34.30;;;19.10;;
24335;SDS011;33098;52.400;16.880;2022-10-12T02:59:28;30.90;;;18.50;;
24335;SDS011;33098;52.400;16.880;2022-10-12T03:01:54;34.00;;;19.40;;
24335;SDS011;33098;52.400;16.880;2022-10-12T03:04:21;36.40;;;19.20;;
24335;SDS011;33098;52.400;16.880;2022-10-12T03:06:48;31.30;;;18.70;;
24335;SDS011;33098;52.400;16.880;2022-10-12T03:09:15;31.90;;;19.20;;
24335;SDS011;33098;52.400;16.880;2022-10-12T03:11:41;33.60;;;19.80;;
24335;SDS011;33098;52.400;16.880;2022-10-12T03:14:10;35.50;;;19.30;;
24335;SDS011;33098;52.400;16.880;2022-10-12T03:16:37;32.70;;;19.20;;
24335;SDS011;33098;52.400;16.880;2022-10-12T03:19:04;36.00;;;19.60;;
24335;SDS011;33098;52.400;16.880;2022-10-12T03:21:31;31.90;;;19.20;;
24335;SDS011;33098;52.400;16.880;2022-10-12T03:23:58;32.50;;;18.30;;
24335;SDS011;33098;52.400;16.880;2022-10-12T03:26:25;37.80;;;18.50;;
24335;SDS011;33098;52.400;16.880;2022-10-12T03:28:54;34.30;;;19.20;;
24335;SDS011;33098;52.400;16.880;2022-10-12T03:31:21;32.60;;;19.20;;
24335;SDS011;33098;52.400;16.880;2022-10-12T03:33:50;37.70;;;19.30;;
24335;SDS011;33098;52.400;16.880;2022-10-12T03:36:17;31.70;;;17.70;;
24335;SDS011;33098;52.400;16.880;2022-10-12T03:38:44;33.50;;;19.20;;
24335;SDS011;33098;52.400;16.880;2022-10-12T03:41:11;36.40;;;18.90;;
24335;SDS011;33098;52.400;16.880;2022-10-12T03:43:38;36.30;;;18.40;;
24335;SDS011;33098;52.400;16.880;2022-10-12T03:46:04;35.20;;;18.90;;
24335;SDS011;33098;52.400;16.880;2022-10-12T03:48:31;35.70;;;18.60;;
24335;SDS011;33098;52.400;16.880;2022-10-12T03:50:58;36.50;;;19.30;;
24335;SDS011;33098;52.400;16.880;2022-10-12T03:53:25;34.10;;;19.30;;
24335;SDS011;33098;52.400;16.880;2022-10-12T03:55:51;31.10;;;19.20;;
24335;SDS011;33098;52.400;16.880;2022-10-12T03:58:21;36.10;;;18.80;;
24335;SDS011;33098;52.400;16.880;2022-10-12T04:00:56;32.70;;;18.20;;
24335;SDS011;33098;52.400;16.880;2022-10-12T04:03:23;32.60;;;18.10;;
24335;SDS011;33098;52.400;16.880;2022-10-12T04:05:53;32.40;;;18.30;;
24335;SDS011;33098;52.400;16.880;2022-10-12T04:08:22;30.10;;;18.00;;
24335;SDS011;33098;52.400;16.880;2022-10-12T04:10:49;30.10;;;17.60;;
24335;SDS011;33098;52.400;16.880;2022-10-12T04:13:18;31.40;;;18.40;;
24335;SDS011;33098;52.400;16.880;2022-10-12T04:15:47;32.90;;;18.40;;
24335;SDS011;33098;52.400;16.880;2022-10-12T04:18:19;28.80;;;16.70;;
24335;SDS011;33098;52.400;16.880;2022-10-12T04:20:47;33.20;;;18.40;;
24335;SDS011;33098;52.400;16.880;2022-10-12T04:23:14;33.00;;;18.30;;
24335;SDS011;33098;52.400;16.880;2022-10-12T04:25:41;29.30;;;17.00;;
24335;SDS011;33098;52.400;16.880;2022-10-12T04:28:08;32.30;;;17.60;;
24335;SDS011;33098;52.400;16.880;2022-10-12T04:30:36;32.30;;;17.90;;
24335;SDS011;33098;52.400;16.880;2022-10-12T04:33:06;32.60;;;17.90;;
24335;SDS011;33098;52.400;16.880;2022-10-12T04:35:35;33.00;;;19.60;;
24335;SDS011;33098;52.400;16.880;2022-10-12T04:38:02;39.30;;;20.60;;
24335;SDS011;33098;52.400;16.880;2022-10-12T04:40:29;34.20;;;18.60;;
24335;SDS011;33098;52.400;16.880;2022-10-12T04:42:56;37.60;;;20.70;;
24335;SDS011;33098;52.400;16.880;2022-10-12T04:45:23;44.40;;;22.40;;
24335;SDS011;33098;52.400;16.880;2022-10-12T04:47:49;42.90;;;22.30;;
24335;SDS011;33098;52.400;16.880;2022-10-12T04:50:16;43.10;;;23.60;;
24335;SDS011;33098;52.400;16.880;2022-10-12T04:52:43;41.00;;;22.20;;
24335;SDS011;33098;52.400;16.880;2022-10-12T04:55:09;35.40;;;21.50;;
24335;SDS011;33098;52.400;16.880;2022-10-12T04:57:36;44.60;;;24.30;;
24335;SDS011;33098;52.400;16.880;2022-10-12T05:00:02;41.70;;;24.50;;
24335;SDS011;33098;52.400;16.880;2022-10-12T05:02:32;48.60;;;25.10;;
24335;SDS011;33098;52.400;16.880;2022-10-12T05:04:59;49.50;;;25.00;;
24335;SDS011;33098;52.400;16.880;2022-10-12T05:07:25;50.00;;;26.10;;
24335;SDS011;33098;52.400;16.880;2022-10-12T05:09:52;53.90;;;27.50;;
24335;SDS011;33098;52.400;16.880;2022-10-12T05:12:18;51.60;;;27.80;;
24335;SDS011;33098;52.400;16.880;2022-10-12T05:14:45;45.30;;;26.40;;
24335;SDS011;33098;52.400;16.880;2022-10-12T05:17:14;50.60;;;28.30;;
24335;SDS011;33098;52.400;16.880;2022-10-12T05:19:41;51.10;;;27.10;;
24335;SDS011;33098;52.400;16.880;2022-10-12T05:22:08;49.40;;;27.70;;
24335;SDS011;33098;52.400;16.880;2022-10-12T05:24:38;51.90;;;27.30;;
24335;SDS011;33098;52.400;16.880;2022-10-12T05:27:04;48.10;;;27.40;;
24335;SDS011;33098;52.400;16.880;2022-10-12T05:29:31;50.20;;;27.30;;
24335;SDS011;33098;52.400;16.880;2022-10-12T05:31:57;45.80;;;26.50;;
24335;SDS011;33098;52.400;16.880;2022-10-12T05:34:24;49.20;;;27.90;;
24335;SDS011;33098;52.400;16.880;2022-10-12T05:36:50;43.30;;;27.00;;
24335;SDS011;33098;52.400;16.880;2022-10-12T05:39:18;52.30;;;27.40;;
24335;SDS011;33098;52.400;16.880;2022-10-12T05:41:44;44.20;;;26.70;;
24335;SDS011;33098;52.400;16.880;2022-10-12T05:44:11;45.60;;;25.90;;
24335;SDS011;33098;52.400;16.880;2022-10-12T05:46:38;48.80;;;26.30;;
24335;SDS011;33098;52.400;16.880;2022-10-12T05:49:07;44.40;;;25.70;;
24335;SDS011;33098;52.400;16.880;2022-10-12T05:51:33;46.60;;;25.60;;
24335;SDS011;33098;52.400;16.880;2022-10-12T05:54:00;47.20;;;25.50;;
24335;SDS011;33098;52.400;16.880;2022-10-12T05:56:29;44.90;;;25.10;;
24335;SDS011;33098;52.400;16.880;2022-10-12T05:58:56;46.80;;;24.70;;
24335;SDS011;33098;52.400;16.880;2022-10-12T06:01:25;40.50;;;25.10;;
24335;SDS011;33098;52.400;16.880;2022-10-12T06:03:52;44.20;;;24.60;;
24335;SDS011;33098;52.400;16.880;2022-10-12T06:06:21;39.60;;;23.70;;
24335;SDS011;33098;52.400;16.880;2022-10-12T06:08:48;40.70;;;22.30;;
24335;SDS011;33098;52.400;16.880;2022-10-12T06:11:15;36.00;;;23.20;;
24335;SDS011;33098;52.400;16.880;2022-10-12T06:13:41;37.00;;;21.60;;
24335;SDS011;33098;52.400;16.880;2022-10-12T06:16:08;40.30;;;22.20;;
24335;SDS011;33098;52.400;16.880;2022-10-12T06:18:34;35.10;;;20.30;;
24335;SDS011;33098;52.400;16.880;2022-10-12T06:21:01;36.50;;;20.40;;
24335;SDS011;33098;52.400;16.880;2022-10-12T06:23:28;35.80;;;20.30;;
24335;SDS011;33098;52.400;16.880;2022-10-12T06:25:55;39.90;;;20.20;;
24335;SDS011;33098;52.400;16.880;2022-10-12T06:28:25;36.70;;;20.60;;
24335;SDS011;33098;52.400;16.880;2022-10-12T06:30:55;35.30;;;20.20;;
24335;SDS011;33098;52.400;16.880;2022-10-12T06:33:23;31.40;;;19.40;;
24335;SDS011;33098;52.400;16.880;2022-10-12T06:36:10;33.90;;;19.40;;
24335;SDS011;33098;52.400;16.880;2022-10-12T06:38:36;39.60;;;18.50;;
24335;SDS011;33098;52.400;16.880;2022-10-12T06:41:03;36.30;;;19.20;;
24335;SDS011;33098;52.400;16.880;2022-10-12T06:43:29;30.60;;;17.50;;
24335;SDS011;33098;52.400;16.880;2022-10-12T06:45:59;35.20;;;17.90;;
24335;SDS011;33098;52.400;16.880;2022-10-12T06:48:27;35.30;;;17.30;;
24335;SDS011;33098;52.400;16.880;2022-10-12T06:50:54;31.60;;;17.80;;
24335;SDS011;33098;52.400;16.880;2022-10-12T06:53:21;30.10;;;18.10;;
24335;SDS011;33098;52.400;16.880;2022-10-12T06:55:48;30.70;;;17.40;;
24335;SDS011;33098;52.400;16.880;2022-10-12T06:58:14;33.30;;;15.90;;
24335;SDS011;33098;52.400;16.880;2022-10-12T07:00:41;29.20;;;15.60;;
24335;SDS011;33098;52.400;16.880;2022-10-12T07:03:09;29.70;;;15.00;;
24335;SDS011;33098;52.400;16.880;2022-10-12T07:05:41;30.10;;;14.80;;
24335;SDS011;33098;52.400;16.880;2022-10-12T07:08:07;28.20;;;14.80;;
24335;SDS011;33098;52.400;16.880;2022-10-12T07:10:34;33.70;;;15.10;;
24335;SDS011;33098;52.400;16.880;2022-10-12T07:13:00;30.90;;;17.10;;
24335;SDS011;33098;52.400;16.880;2022-10-12T07:15:27;33.40;;;17.90;;
24335;SDS011;33098;52.400;16.880;2022-10-12T07:17:53;36.30;;;24.00;;
24335;SDS011;33098;52.400;16.880;2022-10-12T07:20:23;28.10;;;15.80;;
24335;SDS011;33098;52.400;16.880;2022-10-12T07:22:50;28.90;;;16.00;;
24335;SDS011;33098;52.400;16.880;2022-10-12T07:25:18;24.70;;;14.40;;
24335;SDS011;33098;52.400;16.880;2022-10-12T07:27:47;27.50;;;13.60;;
24335;SDS011;33098;52.400;16.880;2022-10-12T07:30:15;27.10;;;13.40;;
24335;SDS011;33098;52.400;16.880;2022-10-12T07:32:41;23.70;;;12.80;;
24335;SDS011;33098;52.400;16.880;2022-10-12T07:35:09;27.50;;;13.30;;
24335;SDS011;33098;52.400;16.880;2022-10-12T07:37:36;29.70;;;13.90;;
24335;SDS011;33098;52.400;16.880;2022-10-12T07:40:04;28.70;;;13.60;;
24335;SDS011;33098;52.400;16.880;2022-10-12T07:42:31;24.50;;;13.60;;
24335;SDS011;33098;52.400;16.880;2022-10-12T07:44:58;28.40;;;13.20;;
24335;SDS011;33098;52.400;16.880;2022-10-12T07:47:24;27.70;;;13.50;;
24335;SDS011;33098;52.400;16.880;2022-10-12T07:49:51;24.90;;;13.10;;
24335;SDS011;33098;52.400;16.880;2022-10-12T07:52:17;25.50;;;12.90;;
24335;SDS011;33098;52.400;16.880;2022-10-12T07:54:47;23.90;;;12.40;;
24335;SDS011;33098;52.400;16.880;2022-10-12T07:57:13;27.70;;;11.70;;
24335;SDS011;33098;52.400;16.880;2022-10-12T07:59:42;23.00;;;12.10;;
24335;SDS011;33098;52.400;16.880;2022-10-12T08:02:09;21.40;;;10.80;;
24335;SDS011;33098;52.400;16.880;2022-10-12T08:04:37;18.50;;;10.50;;
24335;SDS011;33098;52.400;16.880;2022-10-12T08:07:03;26.30;;;10.90;;
24335;SDS011;33098;52.400;16.880;2022-10-12T08:09:30;24.50;;;11.10;;
24335;SDS011;33098;52.400;16.880;2022-10-12T08:11:56;20.90;;;10.50;;
24335;SDS011;33098;52.400;16.880;2022-10-12T08:14:23;24.60;;;11.10;;
24335;SDS011;33098;52.400;16.880;2022-10-12T08:16:50;20.80;;;10.50;;
24335;SDS011;33098;52.400;16.880;2022-10-12T08:19:16;23.60;;;10.70;;
24335;SDS011;33098;52.400;16.880;2022-10-12T08:21:43;23.30;;;10.20;;
24335;SDS011;33098;52.400;16.880;2022-10-12T08:24:11;19.80;;;9.90;;
24335;SDS011;33098;52.400;16.880;2022-10-12T08:26:38;21.60;;;9.20;;
24335;SDS011;33098;52.400;16.880;2022-10-12T08:29:05;22.10;;;9.10;;
24335;SDS011;33098;52.400;16.880;2022-10-12T08:31:33;18.90;;;9.10;;
24335;SDS011;33098;52.400;16.880;2022-10-12T08:34:00;17.50;;;8.20;;
24335;SDS011;33098;52.400;16.880;2022-10-12T08:36:26;16.50;;;7.60;;
24335;SDS011;33098;52.400;16.880;2022-10-12T08:38:53;18.80;;;7.90;;
24335;SDS011;33098;52.400;16.880;2022-10-12T08:41:37;20.30;;;8.30;;
24335;SDS011;33098;52.400;16.880;2022-10-12T08:44:32;18.10;;;8.20;;
24335;SDS011;33098;52.400;16.880;2022-10-12T08:47:11;16.90;;;8.20;;
24335;SDS011;33098;52.400;16.880;2022-10-12T08:49:46;18.90;;;7.70;;
24335;SDS011;33098;52.400;16.880;2022-10-12T08:52:21;22.10;;;8.50;;
24335;SDS011;33098;52.400;16.880;2022-10-12T08:54:50;14.80;;;7.40;;
24335;SDS011;33098;52.400;16.880;2022-10-12T08:57:20;16.40;;;6.80;;
24335;SDS011;33098;52.400;16.880;2022-10-12T08:59:47;22.60;;;11.60;;
24335;SDS011;33098;52.400;16.880;2022-10-12T09:03:03;17.70;;;9.30;;
24335;SDS011;33098;52.400;16.880;2022-10-12T09:05:24;16.30;;;6.70;;
24335;SDS011;33098;52.400;16.880;2022-10-12T09:08:02;14.90;;;7.50;;
24335;SDS011;33098;52.400;16.880;2022-10-12T09:10:45;24.20;;;10.40;;
24335;SDS011;33098;52.400;16.880;2022-10-12T09:15:50;18.30;;;7.30;;
24335;SDS011;33098;52.400;16.880;2022-10-12T09:18:40;13.80;;;6.40;;
24335;SDS011;33098;52.400;16.880;2022-10-12T09:21:14;13.40;;;6.70;;
24335;SDS011;33098;52.400;16.880;2022-10-12T09:23:43;16.20;;;6.50;;
24335;SDS011;33098;52.400;16.880;2022-10-12T09:28:47;21.80;;;9.70;;
24335;SDS011;33098;52.400;16.880;2022-10-12T09:34:07;19.00;;;9.00;;
24335;SDS011;33098;52.400;16.880;2022-10-12T09:36:38;19.40;;;8.80;;
24335;SDS011;33098;52.400;16.880;2022-10-12T09:39:11;18.30;;;8.20;;
24335;SDS011;33098;52.400;16.880;2022-10-12T09:41:43;14.60;;;8.20;;
24335;SDS011;33098;52.400;16.880;2022-10-12T09:44:26;14.80;;;6.50;;
24335;SDS011;33098;52.400;16.880;2022-10-12T09:49:44;14.80;;;7.20;;
24335;SDS011;33098;52.400;16.880;2022-10-12T09:52:16;13.40;;;6.40;;
24335;SDS011;33098;52.400;16.880;2022-10-12T09:54:57;14.70;;;5.00;;
24335;SDS011;33098;52.400;16.880;2022-10-12T09:57:30;11.50;;;4.30;;
24335;SDS011;33098;52.400;16.880;2022-10-12T10:00:03;13.40;;;4.80;;
24335;SDS011;33098;52.400;16.880;2022-10-12T10:02:52;7.80;;;3.40;;
24335;SDS011;33098;52.400;16.880;2022-10-12T10:08:16;9.10;;;3.30;;
24335;SDS011;33098;52.400;16.880;2022-10-12T10:10:55;10.60;;;2.90;;
24335;SDS011;33098;52.400;16.880;2022-10-12T10:13:25;8.40;;;3.50;;
24335;SDS011;33098;52.400;16.880;2022-10-12T10:16:08;11.80;;;4.10;;
24335;SDS011;33098;52.400;16.880;2022-10-12T10:18:39;9.80;;;3.90;;
24335;SDS011;33098;52.400;16.880;2022-10-12T10:21:15;10.50;;;3.40;;
24335;SDS011;33098;52.400;16.880;2022-10-12T10:24:05;8.70;;;3.10;;
24335;SDS011;33098;52.400;16.880;2022-10-12T10:27:03;10.80;;;3.50;;
24335;SDS011;33098;52.400;16.880;2022-10-12T10:29:35;9.40;;;3.10;;
24335;SDS011;33098;52.400;16.880;2022-10-12T10:32:17;9.70;;;3.00;;
24335;SDS011;33098;52.400;16.880;2022-10-12T10:35:01;9.80;;;3.00;;
24335;SDS011;33098;52.400;16.880;2022-10-12T10:37:33;8.50;;;3.00;;
24335;SDS011;33098;52.400;16.880;2022-10-12T10:40:00;9.40;;;2.60;;
24335;SDS011;33098;52.400;16.880;2022-10-12T10:42:29;8.50;;;2.70;;
24335;SDS011;33098;52.400;16.880;2022-10-12T10:45:02;7.50;;;2.60;;
24335;SDS011;33098;52.400;16.880;2022-10-12T10:47:32;8.00;;;2.30;;
24335;SDS011;33098;52.400;16.880;2022-10-12T10:50:21;4.80;;;2.20;;
24335;SDS011;33098;52.400;16.880;2022-10-12T10:52:52;9.10;;;2.40;;
24335;SDS011;33098;52.400;16.880;2022-10-12T10:55:34;8.10;;;2.30;;
24335;SDS011;33098;52.400;16.880;2022-10-12T11:00:54;10.70;;;2.30;;
24335;SDS011;33098;52.400;16.880;2022-10-12T11:03:27;6.20;;;2.00;;
24335;SDS011;33098;52.400;16.880;2022-10-12T11:06:46;10.20;;;2.40;;
24335;SDS011;33098;52.400;16.880;2022-10-12T11:09:15;9.80;;;2.20;;
24335;SDS011;33098;52.400;16.880;2022-10-12T11:11:48;8.20;;;2.40;;
24335;SDS011;33098;52.400;16.880;2022-10-12T11:14:23;12.00;;;5.30;;
24335;SDS011;33098;52.400;16.880;2022-10-12T11:17:00;7.60;;;2.50;;
24335;SDS011;33098;52.400;16.880;2022-10-12T11:27:56;6.60;;;2.40;;
24335;SDS011;33098;52.400;16.880;2022-10-12T11:30:24;8.00;;;2.80;;
24335;SDS011;33098;52.400;16.880;2022-10-12T11:32:55;5.10;;;2.30;;
24335;SDS011;33098;52.400;16.880;2022-10-12T11:35:26;8.60;;;2.50;;
24335;SDS011;33098;52.400;16.880;2022-10-12T11:38:04;7.10;;;2.40;;
24335;SDS011;33098;52.400;16.880;2022-10-12T11:40:37;6.30;;;2.70;;
24335;SDS011;33098;52.400;16.880;2022-10-12T11:43:10;7.50;;;2.80;;
24335;SDS011;33098;52.400;16.880;2022-10-12T11:45:42;7.60;;;2.50;;
24335;SDS011;33098;52.400;16.880;2022-10-12T11:48:25;7.10;;;2.50;;
24335;SDS011;33098;52.400;16.880;2022-10-12T11:51:00;7.30;;;2.40;;
24335;SDS011;33098;52.400;16.880;2022-10-12T11:53:33;8.10;;;2.80;;
24335;SDS011;33098;52.400;16.880;2022-10-12T11:59:18;6.60;;;2.40;;
24335;SDS011;33098;52.400;16.880;2022-10-12T12:04:40;6.60;;;2.70;;
24335;SDS011;33098;52.400;16.880;2022-10-12T12:15:36;8.40;;;2.90;;
24335;SDS011;33098;52.400;16.880;2022-10-12T12:18:17;8.30;;;2.80;;
24335;SDS011;33098;52.400;16.880;2022-10-12T12:23:25;8.20;;;2.90;;
24335;SDS011;33098;52.400;16.880;2022-10-12T12:26:06;7.80;;;3.20;;
24335;SDS011;33098;52.400;16.880;2022-10-12T12:31:41;10.30;;;3.70;;
24335;SDS011;33098;52.400;16.880;2022-10-12T12:34:14;8.30;;;3.40;;
24335;SDS011;33098;52.400;16.880;2022-10-12T12:36:43;7.00;;;3.40;;
24335;SDS011;33098;52.400;16.880;2022-10-12T12:41:54;4.60;;;2.50;;
24335;SDS011;33098;52.400;16.880;2022-10-12T12:49:27;9.40;;;3.00;;
24335;SDS011;33098;52.400;16.880;2022-10-12T12:52:05;7.10;;;3.10;;
24335;SDS011;33098;52.400;16.880;2022-10-12T13:00:12;11.60;;;3.50;;
24335;SDS011;33098;52.400;16.880;2022-10-12T13:15:00;7.60;;;3.30;;
24335;SDS011;33098;52.400;16.880;2022-10-12T13:20:18;8.50;;;3.10;;
24335;SDS011;33098;52.400;16.880;2022-10-12T13:22:48;6.90;;;3.20;;
24335;SDS011;33098;52.400;16.880;2022-10-12T13:25:32;7.90;;;3.10;;
24335;SDS011;33098;52.400;16.880;2022-10-12T13:28:03;8.50;;;3.10;;
24335;SDS011;33098;52.400;16.880;2022-10-12T13:30:40;10.70;;;3.40;;
24335;SDS011;33098;52.400;16.880;2022-10-12T13:38:34;6.30;;;2.70;;
24335;SDS011;33098;52.400;16.880;2022-10-12T13:41:10;5.00;;;2.20;;
24335;SDS011;33098;52.400;16.880;2022-10-12T13:43:44;8.20;;;2.80;;
24335;SDS011;33098;52.400;16.880;2022-10-12T13:46:34;4.80;;;2.40;;
24335;SDS011;33098;52.400;16.880;2022-10-12T13:49:18;10.40;;;2.80;;
24335;SDS011;33098;52.400;16.880;2022-10-12T13:51:55;7.10;;;3.10;;
24335;SDS011;33098;52.400;16.880;2022-10-12T13:54:35;7.30;;;2.40;;
24335;SDS011;33098;52.400;16.880;2022-10-12T13:57:15;7.80;;;2.80;;
24335;SDS011;33098;52.400;16.880;2022-10-12T14:02:41;7.30;;;2.40;;
24335;SDS011;33098;52.400;16.880;2022-10-12T14:05:19;4.70;;;1.70;;
24335;SDS011;33098;52.400;16.880;2022-10-12T14:07:48;7.00;;;2.00;;
24335;SDS011;33098;52.400;16.880;2022-10-12T14:10:18;5.00;;;2.10;;
24335;SDS011;33098;52.400;16.880;2022-10-12T14:12:49;6.70;;;1.80;;
24335;SDS011;33098;52.400;16.880;2022-10-12T14:15:20;4.90;;;2.00;;
24335;SDS011;33098;52.400;16.880;2022-10-12T14:17:49;6.50;;;2.10;;
24335;SDS011;33098;52.400;16.880;2022-10-12T14:20:37;5.30;;;2.10;;
24335;SDS011;33098;52.400;16.880;2022-10-12T14:23:19;7.40;;;2.70;;
24335;SDS011;33098;52.400;16.880;2022-10-12T14:25:51;8.70;;;2.40;;
24335;SDS011;33098;52.400;16.880;2022-10-12T14:28:27;8.90;;;2.40;;
24335;SDS011;33098;52.400;16.880;2022-10-12T14:30:56;8.40;;;2.00;;
24335;SDS011;33098;52.400;16.880;2022-10-12T14:33:26;6.60;;;2.10;;
24335;SDS011;33098;52.400;16.880;2022-10-12T14:38:51;11.10;;;2.40;;
24335;SDS011;33098;52.400;16.880;2022-10-12T14:46:35;8.40;;;2.50;;
24335;SDS011;33098;52.400;16.880;2022-10-12T14:49:23;7.60;;;2.20;;
24335;SDS011;33098;52.400;16.880;2022-10-12T14:51:55;5.50;;;2.10;;
24335;SDS011;33098;52.400;16.880;2022-10-12T14:54:25;6.50;;;2.20;;
24335;SDS011;33098;52.400;16.880;2022-10-12T14:56:51;4.80;;;1.90;;
24335;SDS011;33098;52.400;16.880;2022-10-12T14:59:20;5.60;;;2.20;;
24335;SDS011;33098;52.400;16.880;2022-10-12T15:01:46;6.00;;;2.10;;
24335;SDS011;33098;52.400;16.880;2022-10-12T15:04:13;5.10;;;2.50;;
24335;SDS011;33098;52.400;16.880;2022-10-12T15:06:40;5.90;;;2.40;;
24335;SDS011;33098;52.400;16.880;2022-10-12T15:09:07;8.50;;;2.50;;
24335;SDS011;33098;52.400;16.880;2022-10-12T15:11:34;5.30;;;2.50;;
24335;SDS011;33098;52.400;16.880;2022-10-12T15:14:00;7.60;;;2.30;;
24335;SDS011;33098;52.400;16.880;2022-10-12T15:16:27;7.70;;;2.70;;
24335;SDS011;33098;52.400;16.880;2022-10-12T15:18:54;8.70;;;3.10;;
24335;SDS011;33098;52.400;16.880;2022-10-12T15:21:21;8.90;;;2.60;;
24335;SDS011;33098;52.400;16.880;2022-10-12T15:23:48;10.50;;;2.60;;
24335;SDS011;33098;52.400;16.880;2022-10-12T15:26:15;6.30;;;2.80;;
24335;SDS011;33098;52.400;16.880;2022-10-12T15:28:43;6.70;;;2.70;;
24335;SDS011;33098;52.400;16.880;2022-10-12T15:31:12;7.60;;;2.90;;
24335;SDS011;33098;52.400;16.880;2022-10-12T15:33:40;9.40;;;2.90;;
24335;SDS011;33098;52.400;16.880;2022-10-12T15:36:08;8.10;;;3.20;;
24335;SDS011;33098;52.400;16.880;2022-10-12T15:38:43;7.80;;;3.10;;
24335;SDS011;33098;52.400;16.880;2022-10-12T15:41:16;6.00;;;2.70;;
24335;SDS011;33098;52.400;16.880;2022-10-12T15:43:45;14.30;;;3.00;;
24335;SDS011;33098;52.400;16.880;2022-10-12T15:46:13;8.40;;;3.10;;
24335;SDS011;33098;52.400;16.880;2022-10-12T15:48:43;10.40;;;2.80;;
24335;SDS011;33098;52.400;16.880;2022-10-12T15:51:18;10.10;;;2.80;;
24335;SDS011;33098;52.400;16.880;2022-10-12T15:53:49;9.40;;;3.00;;
24335;SDS011;33098;52.400;16.880;2022-10-12T15:56:18;9.60;;;3.40;;
24335;SDS011;33098;52.400;16.880;2022-10-12T15:58:50;10.80;;;3.00;;
24335;SDS011;33098;52.400;16.880;2022-10-12T16:01:20;9.80;;;2.80;;
24335;SDS011;33098;52.400;16.880;2022-10-12T16:03:47;8.30;;;2.80;;
24335;SDS011;33098;52.400;16.880;2022-10-12T16:06:14;10.40;;;3.00;;
24335;SDS011;33098;52.400;16.880;2022-10-12T16:08:42;11.90;;;3.20;;
24335;SDS011;33098;52.400;16.880;2022-10-12T16:11:15;11.00;;;3.30;;
24335;SDS011;33098;52.400;16.880;2022-10-12T16:13:49;7.30;;;3.10;;
24335;SDS011;33098;52.400;16.880;2022-10-12T16:16:16;9.60;;;3.00;;
24335;SDS011;33098;52.400;16.880;2022-10-12T16:18:45;10.60;;;2.80;;
24335;SDS011;33098;52.400;16.880;2022-10-12T16:21:18;7.50;;;2.80;;
24335;SDS011;33098;52.400;16.880;2022-10-12T16:23:44;10.80;;;3.30;;
24335;SDS011;33098;52.400;16.880;2022-10-12T16:26:12;8.90;;;3.10;;
24335;SDS011;33098;52.400;16.880;2022-10-12T16:28:40;9.40;;;3.40;;
24335;SDS011;33098;52.400;16.880;2022-10-12T16:31:12;8.10;;;2.90;;
24335;SDS011;33098;52.400;16.880;2022-10-12T16:33:41;12.40;;;4.00;;
24335;SDS011;33098;52.400;16.880;2022-10-12T16:36:12;8.70;;;3.40;;